createdAt,value
2023-01-19T00:00:31.185Z,91.90
2023-01-19T00:02:57.739Z,90.96
2023-01-19T00:05:24.323Z,91.38
2023-01-19T00:07:50.827Z,91.03
2023-01-19T00:10:17.480Z,91.05
2023-01-19T00:12:44.056Z,90.89
2023-01-19T00:15:11.198Z,91.15
2023-01-19T00:17:37.691Z,91.16
2023-01-19T00:20:04.527Z,90.64
2023-01-19T00:22:31.086Z,90.84
2023-01-19T00:24:57.691Z,91.02
2023-01-19T00:27:24.223Z,90.96
2023-01-19T00:29:50.794Z,90.16
2023-01-19T00:32:17.329Z,90.85
2023-01-19T00:34:43.869Z,91.22
2023-01-19T00:37:10.413Z,90.69
2023-01-19T00:39:37.005Z,90.80
2023-01-19T00:42:03.634Z,89.93
2023-01-19T00:44:30.208Z,90.41
2023-01-19T00:46:56.809Z,90.44
2023-01-19T00:49:23.320Z,90.67
2023-01-19T00:51:49.834Z,90.98
2023-01-19T00:54:16.456Z,89.92
2023-01-19T00:56:42.969Z,90.05
2023-01-19T00:59:10.638Z,90.34
2023-01-19T01:01:45.637Z,90.20
2023-01-19T01:04:13.130Z,90.01
2023-01-19T01:06:39.714Z,90.40
2023-01-19T01:09:06.247Z,90.02
2023-01-19T01:11:32.725Z,89.32
2023-01-19T01:13:59.403Z,89.37
2023-01-19T01:16:26.243Z,88.84
2023-01-19T01:18:52.745Z,89.66
2023-01-19T01:21:19.222Z,89.57
2023-01-19T01:23:45.791Z,89.44
2023-01-19T01:26:12.354Z,89.17
2023-01-19T01:28:38.845Z,88.33
2023-01-19T01:31:05.460Z,88.07
2023-01-19T01:33:40.703Z,88.05
2023-01-19T01:36:08.688Z,87.75
2023-01-19T01:38:35.171Z,87.51
2023-01-19T01:41:01.776Z,87.77
2023-01-19T01:43:44.159Z,87.67
2023-01-19T01:46:11.642Z,87.70
2023-01-19T01:48:38.231Z,88.02
2023-01-19T01:51:08.165Z,87.77
2023-01-19T01:53:34.755Z,87.36
2023-01-19T01:56:02.768Z,88.23
2023-01-19T01:58:29.287Z,87.73
2023-01-19T02:00:55.833Z,87.35
2023-01-19T02:03:25.541Z,87.80
2023-01-19T02:05:53.026Z,87.16
2023-01-19T02:08:33.591Z,87.54
2023-01-19T02:11:00.850Z,87.10
2023-01-19T02:13:29.293Z,87.26
2023-01-19T02:15:58.447Z,86.91
2023-01-19T02:18:27.251Z,87.79
2023-01-19T02:21:14.425Z,87.25
2023-01-19T02:23:45.359Z,86.82
2023-01-19T02:26:31.337Z,86.57
2023-01-19T02:29:06.984Z,86.37
2023-01-19T02:31:33.972Z,86.50
2023-01-19T02:34:00.961Z,86.50
2023-01-19T02:36:47.858Z,86.63
2023-01-19T02:39:14.409Z,86.46
2023-01-19T02:41:44.747Z,86.69
2023-01-19T02:44:11.650Z,87.06
2023-01-19T02:46:38.432Z,86.38
2023-01-19T02:49:04.945Z,86.40
2023-01-19T02:51:31.490Z,86.75
2023-01-19T02:54:24.650Z,87.30
2023-01-19T02:57:15.494Z,87.49
2023-01-19T02:59:58.640Z,87.12
2023-01-19T03:02:27.976Z,87.40
2023-01-19T03:05:04.989Z,86.95
2023-01-19T03:07:53.353Z,86.55
2023-01-19T03:10:38.353Z,86.58
2023-01-19T03:13:14.598Z,87.11
2023-01-19T03:16:03.675Z,86.70
2023-01-19T03:18:31.199Z,87.17
2023-01-19T03:20:58.918Z,86.99
2023-01-19T03:23:26.767Z,87.33
2023-01-19T03:25:53.345Z,87.23
2023-01-19T03:28:20.099Z,86.50
2023-01-19T03:30:50.604Z,86.52
2023-01-19T03:33:23.516Z,86.99
2023-01-19T03:35:51.734Z,87.07
2023-01-19T03:38:20.848Z,86.51
2023-01-19T03:40:47.380Z,86.64
2023-01-19T03:43:15.599Z,87.07
2023-01-19T03:45:42.121Z,87.23
2023-01-19T03:48:08.681Z,87.16
2023-01-19T03:50:35.209Z,86.68
2023-01-19T03:53:02.680Z,86.79
2023-01-19T03:55:29.407Z,87.08
2023-01-19T03:57:55.957Z,86.40
2023-01-19T04:00:22.621Z,87.14
2023-01-19T04:02:49.164Z,86.52
2023-01-19T04:05:15.767Z,87.10
2023-01-19T04:07:42.348Z,87.34
2023-01-19T04:10:09.382Z,87.60
2023-01-19T04:12:35.945Z,87.79
2023-01-19T04:15:02.449Z,88.19
2023-01-19T04:17:29.016Z,88.29
2023-01-19T04:19:55.594Z,88.09
2023-01-19T04:22:22.135Z,88.32
2023-01-19T04:24:48.687Z,88.35
2023-01-19T04:27:15.195Z,89.13
2023-01-19T04:29:42.010Z,88.75
2023-01-19T04:32:08.655Z,89.04
2023-01-19T04:34:35.123Z,88.93
2023-01-19T04:37:01.667Z,89.16
2023-01-19T04:39:28.144Z,89.88
2023-01-19T04:41:54.839Z,89.92
2023-01-19T04:44:21.382Z,89.69
2023-01-19T04:46:47.987Z,90.17
2023-01-19T04:49:14.552Z,89.40
2023-01-19T04:51:41.113Z,89.87
2023-01-19T04:54:07.682Z,89.17
2023-01-19T04:56:34.464Z,90.06
2023-01-19T04:59:01.008Z,90.13
2023-01-19T05:01:27.746Z,90.38
2023-01-19T05:03:54.321Z,90.20
2023-01-19T05:06:20.842Z,90.39
2023-01-19T05:08:47.337Z,90.85
2023-01-19T05:11:13.911Z,91.27
2023-01-19T05:13:40.465Z,90.46
2023-01-19T05:16:07.426Z,90.42
2023-01-19T05:18:33.956Z,90.62
2023-01-19T05:21:01.918Z,91.30
2023-01-19T05:23:28.443Z,90.78
2023-01-19T05:25:55.005Z,90.71
2023-01-19T05:28:21.576Z,90.55
2023-01-19T05:30:49.690Z,91.07
2023-01-19T05:33:16.219Z,90.97
2023-01-19T05:35:43.767Z,90.79
2023-01-19T05:38:10.313Z,90.65
2023-01-19T05:40:36.835Z,90.48
2023-01-19T05:43:04.173Z,90.84
2023-01-19T05:45:30.984Z,90.12
2023-01-19T05:47:57.540Z,90.39
2023-01-19T05:50:24.040Z,90.27
2023-01-19T05:52:50.599Z,89.79
2023-01-19T05:55:17.126Z,89.23
2023-01-19T05:57:43.641Z,88.92
2023-01-19T06:00:10.748Z,88.87
2023-01-19T06:02:37.309Z,88.99
2023-01-19T06:05:03.977Z,89.81
2023-01-19T06:07:30.742Z,89.79
2023-01-19T06:09:57.733Z,89.75
2023-01-19T06:12:24.249Z,89.51
2023-01-19T06:14:50.769Z,89.25
2023-01-19T06:17:17.319Z,89.22
2023-01-19T06:19:43.842Z,89.81
2023-01-19T06:22:10.438Z,89.80
2023-01-19T06:24:36.997Z,89.76
2023-01-19T06:27:03.570Z,89.84
2023-01-19T06:29:30.138Z,89.96
2023-01-19T06:31:56.784Z,90.28
2023-01-19T06:34:23.435Z,90.39
2023-01-19T06:36:49.943Z,90.36
2023-01-19T06:39:16.533Z,90.37
2023-01-19T06:41:43.111Z,90.34
2023-01-19T06:44:09.880Z,90.23
2023-01-19T06:46:36.510Z,90.73
2023-01-19T06:49:03.102Z,91.09
2023-01-19T06:51:29.683Z,91.11
2023-01-19T06:53:56.249Z,91.34
2023-01-19T06:56:22.809Z,90.48
2023-01-19T06:58:50.120Z,91.01
2023-01-19T07:01:16.938Z,90.72
2023-01-19T07:03:45.491Z,91.30
2023-01-19T07:06:12.698Z,91.01
2023-01-19T07:08:39.252Z,90.94
2023-01-19T07:11:23.208Z,90.86
2023-01-19T07:13:54.392Z,90.78
2023-01-19T07:16:20.932Z,91.41
2023-01-19T07:18:47.970Z,90.61
2023-01-19T07:21:14.497Z,90.60
2023-01-19T07:23:41.029Z,91.00
2023-01-19T07:26:07.532Z,91.28
2023-01-19T07:28:34.029Z,90.53
2023-01-19T07:31:00.771Z,90.98
2023-01-19T07:33:27.381Z,91.57
2023-01-19T07:35:53.914Z,91.43
2023-01-19T07:38:20.636Z,91.07
2023-01-19T07:40:47.188Z,91.20
2023-01-19T07:43:14.062Z,91.09
2023-01-19T07:45:40.696Z,90.92
2023-01-19T07:48:07.210Z,90.72
2023-01-19T07:50:33.769Z,90.50
2023-01-19T07:53:06.993Z,90.21
2023-01-19T07:55:33.535Z,90.18
2023-01-19T07:58:00.104Z,89.87
2023-01-19T08:00:26.745Z,89.43
2023-01-19T08:02:53.275Z,90.50
2023-01-19T08:05:20.450Z,90.25
2023-01-19T08:07:47.103Z,89.72
2023-01-19T08:10:14.115Z,89.94
2023-01-19T08:12:40.922Z,89.23
2023-01-19T08:15:10.949Z,88.66
2023-01-19T08:17:37.786Z,88.61
2023-01-19T08:20:04.834Z,87.64
2023-01-19T08:22:31.384Z,88.52
2023-01-19T08:24:57.924Z,88.31
2023-01-19T08:27:24.719Z,88.06
2023-01-19T08:29:51.232Z,88.14
2023-01-19T08:32:17.984Z,87.45
2023-01-19T08:34:44.565Z,87.34
2023-01-19T08:37:11.092Z,86.59
2023-01-19T08:39:37.633Z,86.66
2023-01-19T08:42:04.336Z,86.23
2023-01-19T08:44:30.876Z,86.16
2023-01-19T08:46:57.422Z,84.58
2023-01-19T08:49:23.954Z,83.97
2023-01-19T08:51:50.563Z,83.59
2023-01-19T08:54:18.603Z,82.68
2023-01-19T08:56:46.026Z,80.26
2023-01-19T08:59:14.081Z,78.51
2023-01-19T09:01:41.145Z,76.59
2023-01-19T09:04:07.736Z,74.19
2023-01-19T09:06:34.316Z,73.67
2023-01-19T09:09:00.989Z,72.08
2023-01-19T09:11:27.563Z,70.59
2023-01-19T09:13:54.161Z,69.47
2023-01-19T09:16:21.027Z,69.08
2023-01-19T09:18:47.607Z,67.28
2023-01-19T09:21:14.138Z,64.28
2023-01-19T09:23:40.695Z,61.51
2023-01-19T09:26:07.581Z,60.37
2023-01-19T09:28:34.129Z,59.02
2023-01-19T09:31:04.804Z,59.04
2023-01-19T09:33:31.441Z,56.58
2023-01-19T09:35:57.933Z,56.62
2023-01-19T09:38:24.490Z,55.88
2023-01-19T09:40:55.446Z,55.35
2023-01-19T09:44:01.027Z,56.01
2023-01-19T09:46:36.813Z,53.46
2023-01-19T09:49:27.131Z,53.78
2023-01-19T09:51:53.734Z,50.22
2023-01-19T09:54:29.016Z,48.58
2023-01-19T09:56:55.582Z,47.78
2023-01-19T09:59:32.522Z,48.92
2023-01-19T10:02:23.745Z,46.30
2023-01-19T10:04:50.425Z,46.21
2023-01-19T10:07:35.099Z,43.81
2023-01-19T10:10:19.842Z,45.00
2023-01-19T10:13:10.981Z,44.52
2023-01-19T10:15:40.539Z,42.74
2023-01-19T10:18:16.008Z,41.26
2023-01-19T10:20:48.669Z,43.63
2023-01-19T10:23:40.905Z,41.22
2023-01-19T10:26:31.690Z,41.61
2023-01-19T10:29:02.751Z,41.77
2023-01-19T10:31:29.945Z,44.00
2023-01-19T10:33:56.568Z,46.14
2023-01-19T10:36:29.301Z,45.59
2023-01-19T10:38:55.825Z,45.45
2023-01-19T10:41:43.500Z,47.30
2023-01-19T10:44:10.161Z,50.57
2023-01-19T10:46:44.561Z,56.12
2023-01-19T10:49:27.789Z,56.85
2023-01-19T10:51:55.081Z,59.58
2023-01-19T10:54:21.608Z,58.90
2023-01-19T10:56:55.668Z,57.70
2023-01-19T10:59:54.842Z,58.65
2023-01-19T11:02:22.333Z,57.50
2023-01-19T11:04:50.272Z,59.04
2023-01-19T11:07:27.458Z,60.86
2023-01-19T11:10:11.519Z,60.92
2023-01-19T11:13:00.943Z,59.82
2023-01-19T11:15:32.070Z,61.27
2023-01-19T11:17:58.602Z,62.88
2023-01-19T11:20:49.658Z,62.71
2023-01-19T11:23:28.948Z,63.10
2023-01-19T11:25:59.992Z,62.32
2023-01-19T11:28:31.814Z,60.86
2023-01-19T11:31:02.851Z,58.76
2023-01-19T11:33:34.706Z,58.88
2023-01-19T11:36:06.677Z,63.36
2023-01-19T11:38:35.419Z,63.05
2023-01-19T11:41:02.107Z,60.62
2023-01-19T11:43:43.375Z,63.72
2023-01-19T11:46:14.592Z,64.58
2023-01-19T11:49:04.237Z,64.46
2023-01-19T11:51:36.518Z,65.15
2023-01-19T11:54:05.905Z,65.70
2023-01-19T11:56:32.403Z,65.80
2023-01-19T11:58:58.978Z,66.42
2023-01-19T12:01:29.067Z,65.22
2023-01-19T12:04:00.359Z,65.27
2023-01-19T12:06:31.922Z,64.16
2023-01-19T12:09:05.859Z,64.18
2023-01-19T12:11:35.863Z,64.33
2023-01-19T12:14:02.419Z,65.41
2023-01-19T12:16:31.987Z,65.15
2023-01-19T12:19:03.832Z,64.73
2023-01-19T12:21:30.667Z,64.72
2023-01-19T12:24:10.373Z,63.91
2023-01-19T12:26:38.821Z,64.17
2023-01-19T12:29:12.998Z,64.88
2023-01-19T12:31:40.498Z,64.28
2023-01-19T12:34:26.628Z,64.51
2023-01-19T12:36:53.035Z,64.97
2023-01-19T12:39:20.682Z,63.79
2023-01-19T12:41:47.704Z,63.38
2023-01-19T12:44:17.128Z,65.21
2023-01-19T12:46:57.191Z,64.42
2023-01-19T12:49:29.754Z,65.00
2023-01-19T12:52:47.594Z,64.56
2023-01-19T12:55:14.158Z,64.41
2023-01-19T12:57:41.563Z,63.67
2023-01-19T13:00:23.028Z,63.76
2023-01-19T13:02:53.967Z,64.22
2023-01-19T13:05:38.985Z,64.46
2023-01-19T13:08:05.556Z,63.14
2023-01-19T13:11:00.240Z,63.97
2023-01-19T13:13:31.155Z,63.55
2023-01-19T13:16:19.627Z,62.96
2023-01-19T13:18:56.930Z,64.19
2023-01-19T13:21:27.445Z,62.49
2023-01-19T13:23:56.186Z,63.51
2023-01-19T13:26:33.051Z,63.77
2023-01-19T13:29:17.645Z,65.39
2023-01-19T13:31:44.499Z,65.23
2023-01-19T13:34:13.099Z,64.42
2023-01-19T13:36:43.382Z,65.81
2023-01-19T13:39:18.717Z,64.86
2023-01-19T13:41:45.388Z,65.28
2023-01-19T13:44:32.125Z,66.04
2023-01-19T13:46:58.914Z,66.05
2023-01-19T13:49:29.816Z,66.80
2023-01-19T13:52:16.038Z,67.99
2023-01-19T13:54:51.673Z,67.46
2023-01-19T13:57:42.047Z,67.01
2023-01-19T14:00:11.939Z,67.58
2023-01-19T14:02:42.394Z,66.99
2023-01-19T14:05:16.135Z,67.15
2023-01-19T14:07:43.229Z,67.80
2023-01-19T14:10:14.171Z,68.40
2023-01-19T14:12:54.558Z,69.12
2023-01-19T14:15:25.507Z,68.48
2023-01-19T14:18:18.745Z,68.82
2023-01-19T14:20:55.629Z,68.71
2023-01-19T14:23:38.529Z,69.44
2023-01-19T14:26:05.556Z,68.95
2023-01-19T14:28:32.050Z,69.67
2023-01-19T14:31:03.394Z,68.04
2023-01-19T14:33:43.450Z,68.87
2023-01-19T14:36:11.540Z,69.25
2023-01-19T14:38:38.195Z,69.93
2023-01-19T14:41:04.858Z,68.67
2023-01-19T14:43:31.553Z,69.76
2023-01-19T14:45:58.267Z,69.59
2023-01-19T14:48:24.899Z,71.00
2023-01-19T14:51:02.833Z,69.55
2023-01-19T14:53:34.020Z,69.36
2023-01-19T14:56:01.942Z,70.15
2023-01-19T14:58:30.278Z,69.68
2023-01-19T15:00:57.083Z,69.34
2023-01-19T15:03:31.958Z,69.07
2023-01-19T15:06:18.905Z,70.56
2023-01-19T15:08:45.908Z,69.88
2023-01-19T15:11:34.521Z,70.51
2023-01-19T15:14:01.334Z,69.77
2023-01-19T15:16:29.038Z,69.64
2023-01-19T15:18:56.069Z,70.16
2023-01-19T15:21:23.066Z,70.03
2023-01-19T15:23:49.775Z,70.05
2023-01-19T15:26:19.456Z,70.17
2023-01-19T15:28:46.209Z,70.85
2023-01-19T15:31:17.186Z,71.06
2023-01-19T15:33:43.911Z,70.78
2023-01-19T15:36:18.212Z,71.02
2023-01-19T15:38:45.992Z,71.43
2023-01-19T15:41:23.530Z,70.88
2023-01-19T15:43:50.410Z,71.30
2023-01-19T15:46:19.085Z,70.88
2023-01-19T15:48:45.672Z,71.84
2023-01-19T15:51:13.110Z,70.64
2023-01-19T15:53:40.288Z,69.71
2023-01-19T15:56:10.751Z,70.63
2023-01-19T15:58:37.408Z,70.83
2023-01-19T16:01:04.264Z,71.13
2023-01-19T16:03:30.920Z,71.60
2023-01-19T16:06:00.500Z,71.29
2023-01-19T16:08:28.562Z,71.47
2023-01-19T16:10:55.134Z,71.37
2023-01-19T16:13:21.731Z,71.18
2023-01-19T16:15:48.441Z,72.03
2023-01-19T16:18:15.046Z,71.89
2023-01-19T16:20:41.999Z,72.20
2023-01-19T16:23:16.100Z,70.91
2023-01-19T16:25:43.965Z,71.40
2023-01-19T16:28:10.658Z,72.61
2023-01-19T16:30:37.271Z,71.53
2023-01-19T16:33:04.043Z,71.57
2023-01-19T16:35:30.768Z,71.85
2023-01-19T16:37:57.341Z,72.17
2023-01-19T16:40:23.934Z,71.82
2023-01-19T16:42:50.541Z,71.26
2023-01-19T16:45:21.360Z,71.06
2023-01-19T16:47:50.092Z,71.86
2023-01-19T16:50:17.052Z,71.53
2023-01-19T16:52:43.837Z,72.90
2023-01-19T16:55:10.527Z,72.53
2023-01-19T16:57:38.250Z,72.44
2023-01-19T17:00:09.084Z,72.59
2023-01-19T17:02:36.448Z,72.72
2023-01-19T17:05:05.843Z,74.09
2023-01-19T17:07:35.621Z,73.28
2023-01-19T17:10:04.339Z,72.39
2023-01-19T17:12:36.557Z,72.01
2023-01-19T17:15:03.343Z,72.26
2023-01-19T17:17:32.179Z,72.38
2023-01-19T17:19:59.124Z,71.83
2023-01-19T17:22:25.788Z,71.98
2023-01-19T17:24:52.421Z,71.81
2023-01-19T17:27:23.213Z,71.72
2023-01-19T17:29:51.061Z,72.12
2023-01-19T17:32:20.197Z,72.25
2023-01-19T17:34:51.992Z,73.10
2023-01-19T17:37:18.656Z,73.18
2023-01-19T17:39:45.420Z,72.77
2023-01-19T17:42:14.968Z,73.14
2023-01-19T17:44:43.749Z,72.71
2023-01-19T17:47:22.121Z,72.67
2023-01-19T17:49:55.978Z,72.24
2023-01-19T17:52:31.278Z,72.67
2023-01-19T17:54:57.797Z,72.30
2023-01-19T17:57:24.388Z,72.22
2023-01-19T17:59:50.959Z,73.29
2023-01-19T18:02:19.198Z,76.03
2023-01-19T18:04:45.757Z,77.62
2023-01-19T18:07:12.429Z,77.72
2023-01-19T18:09:39.029Z,77.19
2023-01-19T18:12:09.728Z,76.92
2023-01-19T18:14:36.327Z,75.71
2023-01-19T18:17:04.072Z,74.89
2023-01-19T18:19:36.757Z,74.39
2023-01-19T18:22:08.547Z,73.45
2023-01-19T18:24:40.133Z,73.45
2023-01-19T18:27:06.830Z,73.95
2023-01-19T18:29:36.647Z,72.95
2023-01-19T18:32:13.035Z,73.83
2023-01-19T18:34:42.800Z,72.83
2023-01-19T18:37:26.507Z,75.28
2023-01-19T18:39:53.235Z,76.06
2023-01-19T18:42:21.086Z,77.04
2023-01-19T18:44:50.987Z,77.90
2023-01-19T18:47:22.879Z,77.91
2023-01-19T18:49:49.581Z,76.50
2023-01-19T18:52:26.519Z,75.52
2023-01-19T18:54:56.062Z,76.44
2023-01-19T18:57:24.963Z,75.64
2023-01-19T18:59:54.033Z,75.64
2023-01-19T19:02:27.458Z,76.15
2023-01-19T19:04:54.302Z,76.21
2023-01-19T19:14:47.891Z,77.03
2023-01-19T19:17:14.687Z,77.61
2023-01-19T19:19:42.799Z,78.17
2023-01-19T19:22:16.946Z,76.71
2023-01-19T19:24:48.880Z,75.17
2023-01-19T19:27:25.148Z,75.26
2023-01-19T19:29:51.911Z,75.76
2023-01-19T19:32:18.663Z,75.10
2023-01-19T19:34:48.973Z,75.72
2023-01-19T19:37:16.173Z,76.37
2023-01-19T19:39:42.978Z,76.48
2023-01-19T19:42:09.579Z,76.86
2023-01-19T19:44:36.603Z,77.16
2023-01-19T19:47:03.596Z,78.74
2023-01-19T19:49:30.429Z,78.09
2023-01-19T19:51:57.486Z,78.60
2023-01-19T19:54:24.307Z,78.31
2023-01-19T19:56:51.201Z,77.65
2023-01-19T19:59:18.192Z,77.36
2023-01-19T20:01:44.961Z,77.08
2023-01-19T20:04:12.106Z,76.53
2023-01-19T20:06:39.818Z,77.32
2023-01-19T20:09:08.103Z,77.01
2023-01-19T20:11:34.832Z,76.94
2023-01-19T20:14:07.715Z,76.86
2023-01-19T20:16:34.783Z,76.97
2023-01-19T20:19:01.593Z,77.32
2023-01-19T20:21:35.445Z,76.62
2023-01-19T20:24:04.134Z,76.88
2023-01-19T20:26:33.289Z,75.99
2023-01-19T20:29:01.621Z,76.56
2023-01-19T20:31:32.064Z,76.68
2023-01-19T20:33:59.779Z,76.14
2023-01-19T20:36:28.580Z,76.65
2023-01-19T20:38:55.431Z,76.71
2023-01-19T20:41:22.296Z,77.24
2023-01-19T20:43:48.922Z,75.84
2023-01-19T20:46:15.594Z,76.24
2023-01-19T20:48:42.273Z,76.59
2023-01-19T20:51:10.891Z,76.38
2023-01-19T20:53:38.492Z,75.20
2023-01-19T20:56:06.288Z,76.33
2023-01-19T20:58:33.190Z,76.72
2023-01-19T21:00:59.967Z,76.26
2023-01-19T21:03:26.764Z,76.28
2023-01-19T21:05:54.925Z,76.71
2023-01-19T21:08:23.972Z,76.14
2023-01-19T21:10:50.725Z,77.22
2023-01-19T21:13:20.403Z,77.04
2023-01-19T21:15:47.169Z,76.62
2023-01-19T21:18:15.959Z,77.22
2023-01-19T21:20:42.631Z,77.91
2023-01-19T21:23:09.400Z,76.08
2023-01-19T21:25:35.956Z,77.90
2023-01-19T21:28:02.948Z,76.83
2023-01-19T21:30:29.734Z,77.93
2023-01-19T21:32:56.330Z,77.59
2023-01-19T21:35:23.162Z,77.39
2023-01-19T21:37:49.754Z,76.98
2023-01-19T21:40:16.549Z,77.53
2023-01-19T21:42:43.342Z,77.07
2023-01-19T21:45:10.146Z,76.44
2023-01-19T21:47:36.806Z,76.00
2023-01-19T21:50:04.003Z,75.43
2023-01-19T21:52:30.632Z,76.22
2023-01-19T21:54:57.307Z,75.92
2023-01-19T21:57:23.941Z,75.76
2023-01-19T21:59:50.706Z,77.21
2023-01-19T22:02:29.890Z,76.88
2023-01-19T22:05:04.538Z,76.44
2023-01-19T22:07:31.485Z,76.31
2023-01-19T22:09:58.146Z,76.91
2023-01-19T22:12:24.717Z,77.26
2023-01-19T22:14:51.272Z,77.28
2023-01-19T22:17:17.960Z,77.24
2023-01-19T22:19:44.573Z,77.31
2023-01-19T22:22:11.249Z,76.82
2023-01-19T22:24:37.777Z,76.70
2023-01-19T22:27:04.554Z,76.58
2023-01-19T22:29:31.318Z,75.92
2023-01-19T22:31:58.068Z,75.99
2023-01-19T22:34:25.062Z,77.27
2023-01-19T22:36:51.812Z,77.38
2023-01-19T22:39:18.479Z,77.90
2023-01-19T22:41:45.995Z,77.42
2023-01-19T22:44:14.665Z,77.39
2023-01-19T22:46:41.535Z,76.99
2023-01-19T22:49:08.286Z,76.85
2023-01-19T22:51:35.059Z,77.43
2023-01-19T22:54:01.782Z,78.24
2023-01-19T22:56:29.656Z,77.34
2023-01-19T22:58:56.497Z,76.66
2023-01-19T23:01:27.993Z,76.92
2023-01-19T23:03:54.855Z,76.32
2023-01-19T23:06:25.905Z,76.43
2023-01-19T23:08:54.418Z,77.50
2023-01-19T23:11:28.374Z,77.48
2023-01-19T23:13:55.039Z,77.23
2023-01-19T23:16:21.728Z,75.77
2023-01-19T23:18:48.436Z,76.58
2023-01-19T23:21:16.901Z,76.71
2023-01-19T23:23:43.851Z,76.68
2023-01-19T23:26:15.293Z,77.63
2023-01-19T23:28:42.056Z,77.63
2023-01-19T23:31:18.372Z,77.41
2023-01-19T23:33:45.015Z,77.36
2023-01-19T23:36:12.101Z,77.41
2023-01-19T23:38:38.893Z,77.92
2023-01-19T23:41:05.616Z,77.76
2023-01-19T23:43:32.529Z,78.32
2023-01-19T23:46:05.887Z,78.17
2023-01-19T23:48:33.401Z,77.68
2023-01-19T23:51:00.009Z,78.19
2023-01-19T23:53:26.558Z,78.33
2023-01-19T23:55:53.248Z,79.70
2023-01-19T23:58:19.829Z,80.90
